createdAt,value
2018-09-28T00:01:54.186Z,11.80
2018-09-28T00:06:56.338Z,11.70
2018-09-28T00:11:58.491Z,11.60
2018-09-28T00:17:00.645Z,11.50
2018-09-28T00:22:02.785Z,11.50
2018-09-28T00:27:04.938Z,11.40
2018-09-28T00:32:07.070Z,11.40
2018-09-28T00:37:09.233Z,11.30
2018-09-28T00:42:11.390Z,11.20
2018-09-28T00:47:13.517Z,11.30
2018-09-28T00:52:15.646Z,11.20
2018-09-28T00:57:18.097Z,11.10
2018-09-28T01:02:20.235Z,11.10
2018-09-28T01:07:22.370Z,11.10
2018-09-28T01:12:24.542Z,11.00
2018-09-28T01:17:26.674Z,11.00
2018-09-28T01:22:28.801Z,11.00
2018-09-28T01:27:37.680Z,10.90
2018-09-28T01:32:39.821Z,10.80
2018-09-28T01:37:41.937Z,10.80
2018-09-28T01:42:44.069Z,10.60
2018-09-28T01:47:46.274Z,10.50
2018-09-28T01:52:48.413Z,10.50
2018-09-28T01:57:50.566Z,10.40
2018-09-28T02:02:52.705Z,10.40
2018-09-28T02:07:54.853Z,10.30
2018-09-28T02:12:57.008Z,10.20
2018-09-28T02:18:06.149Z,10.20
2018-09-28T02:23:08.293Z,10.10
2018-09-28T02:28:10.431Z,10.10
2018-09-28T02:33:12.566Z,10.10
2018-09-28T02:38:14.724Z,10.00
2018-09-28T02:43:16.902Z,10.00
2018-09-28T02:48:19.046Z,9.90
2018-09-28T02:53:21.174Z,9.90
2018-09-28T02:58:23.342Z,9.70
2018-09-28T03:03:25.483Z,9.70
2018-09-28T03:08:27.630Z,9.70
2018-09-28T03:13:29.773Z,9.70
2018-09-28T03:18:31.906Z,9.60
2018-09-28T03:23:34.165Z,9.50
2018-09-28T03:28:36.310Z,9.50
2018-09-28T03:33:38.454Z,9.30
2018-09-28T03:38:40.634Z,9.30
2018-09-28T03:43:42.769Z,9.20
2018-09-28T03:48:44.914Z,9.20
2018-09-28T03:53:47.066Z,9.20
2018-09-28T03:58:49.247Z,9.20
2018-09-28T04:03:51.349Z,9.20
2018-09-28T04:08:53.494Z,9.10
2018-09-28T04:13:55.666Z,9.10
2018-09-28T04:18:57.837Z,9.00
2018-09-28T04:24:00.011Z,9.00
2018-09-28T04:29:02.177Z,8.90
2018-09-28T04:34:04.346Z,8.90
2018-09-28T04:39:06.582Z,8.80
2018-09-28T04:44:08.805Z,8.80
2018-09-28T04:49:10.991Z,8.80
2018-09-28T04:54:13.158Z,8.70
2018-09-28T04:59:15.326Z,8.60
2018-09-28T05:04:17.474Z,8.50
2018-09-28T05:09:19.605Z,8.50
2018-09-28T05:14:21.941Z,8.50
2018-09-28T05:19:24.196Z,8.50
2018-09-28T05:24:26.319Z,8.50
2018-09-28T05:29:28.469Z,8.50
2018-09-28T05:34:30.906Z,8.50
2018-09-28T05:39:33.196Z,8.50
2018-09-28T05:44:35.265Z,8.50
2018-09-28T05:49:37.421Z,8.50
2018-09-28T05:54:39.590Z,8.50
2018-09-28T05:59:47.427Z,8.70
2018-09-28T06:04:55.330Z,9.00
2018-09-28T06:09:57.486Z,9.40
2018-09-28T06:14:59.664Z,9.70
2018-09-28T06:20:01.830Z,9.90
2018-09-28T06:25:04.005Z,10.30
2018-09-28T06:30:06.259Z,10.70
2018-09-28T06:35:08.410Z,11.10
2018-09-28T06:40:10.594Z,11.40
2018-09-28T06:45:12.746Z,11.80
2018-09-28T06:50:14.949Z,12.30
2018-09-28T06:55:17.106Z,12.70
2018-09-28T07:00:19.334Z,13.10
2018-09-28T07:05:21.413Z,13.70
2018-09-28T07:10:23.557Z,14.20
2018-09-28T07:15:25.718Z,14.70
2018-09-28T07:20:27.905Z,15.10
2018-09-28T07:25:30.022Z,15.40
2018-09-28T07:30:32.166Z,15.90
2018-09-28T07:35:34.302Z,16.30
2018-09-28T07:40:36.477Z,16.50
2018-09-28T07:45:38.642Z,17.20
2018-09-28T07:50:40.798Z,17.50
2018-09-28T07:55:42.976Z,18.20
2018-09-28T08:00:45.095Z,18.80
2018-09-28T08:05:47.278Z,18.70
2018-09-28T08:10:49.540Z,19.40
2018-09-28T08:15:51.789Z,19.40
2018-09-28T08:20:53.938Z,20.00
2018-09-28T08:25:56.082Z,20.30
2018-09-28T08:30:58.222Z,20.30
2018-09-28T08:36:00.373Z,21.00
2018-09-28T08:41:02.502Z,21.10
2018-09-28T08:46:04.660Z,21.20
2018-09-28T08:51:07.126Z,22.10
2018-09-28T08:56:09.337Z,22.30
2018-09-28T09:01:11.486Z,21.80
2018-09-28T09:06:13.617Z,22.70
2018-09-28T09:11:15.750Z,22.70
2018-09-28T09:16:17.902Z,23.00
2018-09-28T09:21:20.032Z,23.80
2018-09-28T09:26:22.173Z,23.80
2018-09-28T09:31:24.349Z,24.20
2018-09-28T09:36:26.531Z,23.80
2018-09-28T09:41:28.642Z,24.70
2018-09-28T09:46:30.789Z,24.40
2018-09-28T09:51:33.033Z,24.50
2018-09-28T09:56:35.173Z,24.60
2018-09-28T10:01:42.982Z,25.20
2018-09-28T10:06:45.106Z,24.90
2018-09-28T10:11:47.234Z,23.30
2018-09-28T10:16:49.358Z,22.40
2018-09-28T10:21:51.486Z,22.50
2018-09-28T10:26:53.652Z,22.40
2018-09-28T10:31:55.773Z,21.60
2018-09-28T10:36:57.910Z,21.30
2018-09-28T10:42:00.081Z,21.60
2018-09-28T10:47:02.245Z,21.60
2018-09-28T10:52:04.479Z,21.70
2018-09-28T10:57:07.764Z,21.20
2018-09-28T11:02:09.856Z,21.40
2018-09-28T11:07:11.987Z,21.70
2018-09-28T11:12:14.122Z,21.50
2018-09-28T11:17:16.273Z,21.20
2018-09-28T11:22:18.418Z,21.40
2018-09-28T11:27:20.572Z,21.60
2018-09-28T11:32:22.718Z,21.10
2018-09-28T11:37:24.866Z,20.90
2018-09-28T11:42:27.014Z,21.00
2018-09-28T11:47:29.283Z,20.90
2018-09-28T11:52:31.529Z,20.70
2018-09-28T11:57:33.666Z,20.90
2018-09-28T12:02:35.832Z,20.90
2018-09-28T12:07:37.970Z,20.50
2018-09-28T12:12:40.145Z,20.60
2018-09-28T12:17:42.292Z,20.80
2018-09-28T12:22:44.438Z,20.80
2018-09-28T12:27:46.624Z,20.70
2018-09-28T12:32:48.913Z,20.80
2018-09-28T12:37:53.013Z,20.80
2018-09-28T12:42:55.313Z,21.00
2018-09-28T12:47:57.479Z,21.10
2018-09-28T12:52:59.626Z,20.90
2018-09-28T12:58:01.784Z,21.00
2018-09-28T13:03:03.930Z,20.80
2018-09-28T13:08:06.150Z,20.70
2018-09-28T13:13:08.257Z,20.90
2018-09-28T13:18:10.413Z,20.90
2018-09-28T13:23:12.705Z,20.90
2018-09-28T13:28:14.858Z,20.70
2018-09-28T13:33:16.998Z,20.70
2018-09-28T13:38:19.180Z,20.90
2018-09-28T13:43:21.321Z,20.90
2018-09-28T13:48:23.523Z,20.70
2018-09-28T13:53:25.582Z,20.50
2018-09-28T13:58:27.725Z,20.20
2018-09-28T14:03:29.865Z,20.10
2018-09-28T14:08:32.009Z,19.80
2018-09-28T14:13:34.177Z,19.90
2018-09-28T14:18:36.379Z,20.00
2018-09-28T14:23:38.458Z,20.00
2018-09-28T14:28:40.679Z,19.70
2018-09-28T14:33:42.909Z,19.20
2018-09-28T14:38:45.064Z,19.00
2018-09-28T14:43:47.206Z,18.80
2018-09-28T14:48:49.571Z,18.30
2018-09-28T14:53:51.541Z,17.90
2018-09-28T14:58:53.725Z,17.80
2018-09-28T15:03:56.086Z,17.30
2018-09-28T15:08:58.230Z,17.10
2018-09-28T15:14:00.402Z,16.70
2018-09-28T15:19:02.756Z,16.40
2018-09-28T15:24:05.035Z,16.10
2018-09-28T15:29:07.446Z,15.90
2018-09-28T15:34:10.114Z,15.80
2018-09-28T15:39:13.170Z,15.60
2018-09-28T15:44:15.370Z,15.40
2018-09-28T15:49:17.608Z,15.20
2018-09-28T15:54:19.890Z,15.20
2018-09-28T15:59:22.085Z,15.10
2018-09-28T16:04:24.535Z,15.10
2018-09-28T16:09:26.730Z,15.20
2018-09-28T16:14:28.893Z,15.20
2018-09-28T16:19:31.100Z,15.00
2018-09-28T16:24:33.774Z,14.70
2018-09-28T16:29:35.934Z,14.50
2018-09-28T16:34:38.188Z,14.50
2018-09-28T16:39:40.399Z,14.10
2018-09-28T16:44:42.605Z,13.90
2018-09-28T16:49:44.818Z,13.90
2018-09-28T16:54:46.967Z,13.80
2018-09-28T16:59:49.126Z,13.90
2018-09-28T17:04:51.343Z,13.80
2018-09-28T17:09:53.528Z,13.90
2018-09-28T17:14:55.769Z,13.80
2018-09-28T17:19:57.997Z,13.80
2018-09-28T17:25:00.201Z,13.80
2018-09-28T17:30:02.464Z,13.80
2018-09-28T17:35:04.821Z,13.90
2018-09-28T17:40:07.592Z,13.90
2018-09-28T17:45:09.862Z,13.90
2018-09-28T17:50:12.066Z,14.00
2018-09-28T17:55:14.238Z,14.00
2018-09-28T18:00:16.466Z,14.00
2018-09-28T18:05:18.766Z,13.90
2018-09-28T18:10:20.969Z,13.90
2018-09-28T18:15:23.146Z,14.00
2018-09-28T18:20:25.322Z,13.90
2018-09-28T18:25:27.450Z,13.90
2018-09-28T18:30:29.629Z,13.90
2018-09-28T18:35:41.259Z,13.90
2018-09-28T18:40:43.897Z,13.90
2018-09-28T18:45:46.861Z,13.80
2018-09-28T18:50:48.997Z,13.80
2018-09-28T18:55:51.165Z,13.80
2018-09-28T19:00:53.445Z,13.80
2018-09-28T19:05:55.712Z,13.80
2018-09-28T19:10:57.785Z,13.80
2018-09-28T19:15:59.930Z,13.70
2018-09-28T19:21:02.101Z,13.70
2018-09-28T19:26:04.403Z,13.70
2018-09-28T19:31:06.561Z,13.70
2018-09-28T19:36:08.751Z,13.60
2018-09-28T19:41:10.918Z,13.60
2018-09-28T19:46:13.108Z,13.60
2018-09-28T19:51:15.270Z,13.60
2018-09-28T19:56:17.424Z,13.50
2018-09-28T20:01:19.573Z,13.50
2018-09-28T20:06:21.781Z,13.40
2018-09-28T20:11:23.918Z,13.30
2018-09-28T20:16:26.085Z,13.20
2018-09-28T20:21:28.598Z,13.10
2018-09-28T20:26:30.750Z,13.00
2018-09-28T20:31:32.946Z,12.80
2018-09-28T20:36:35.107Z,12.80
2018-09-28T20:41:37.301Z,12.70
2018-09-28T20:46:39.466Z,12.60
2018-09-28T20:51:42.456Z,12.50
2018-09-28T20:56:44.618Z,12.40
2018-09-28T21:01:46.809Z,12.20
2018-09-28T21:06:48.957Z,12.10
2018-09-28T21:11:51.134Z,12.00
2018-09-28T21:16:53.274Z,11.90
2018-09-28T21:21:55.413Z,11.80
2018-09-28T21:26:57.549Z,11.70
2018-09-28T21:31:59.697Z,11.60
2018-09-28T21:37:01.845Z,11.50
2018-09-28T21:42:03.986Z,11.50
2018-09-28T21:47:06.197Z,11.30
2018-09-28T21:52:08.343Z,11.30
2018-09-28T21:57:10.481Z,11.20
2018-09-28T22:02:12.638Z,11.10
2018-09-28T22:07:14.895Z,11.00
2018-09-28T22:12:17.050Z,10.90
2018-09-28T22:17:19.226Z,10.70
2018-09-28T22:22:21.385Z,10.60
2018-09-28T22:27:23.653Z,10.50
2018-09-28T22:32:25.802Z,10.40
2018-09-28T22:37:27.929Z,10.30
2018-09-28T22:42:30.098Z,10.40
2018-09-28T22:47:32.269Z,10.30
2018-09-28T22:52:34.558Z,10.20
2018-09-28T22:57:36.946Z,10.10
2018-09-28T23:07:48.030Z,9.90
2018-09-28T23:12:50.202Z,9.90
2018-09-28T23:17:52.347Z,9.80
2018-09-28T23:22:54.506Z,9.80
2018-09-28T23:27:56.658Z,9.70
2018-09-28T23:32:58.839Z,9.70
2018-09-28T23:38:00.970Z,9.70
2018-09-28T23:43:03.194Z,9.70
2018-09-28T23:48:05.604Z,9.60
2018-09-28T23:53:07.746Z,9.40
2018-09-28T23:58:09.914Z,9.40
